Time;durP1;ratioP1;P1;durP2;ratioP2;P2;SDS_P1;SDS_P2;PMS_P1;PMS_P2;Temp;Humidity;BMP_temperature;BMP_pressure;BME280_temperature;BME280_humidity;BME280_pressure;Samples;Min_cycle;Max_cycle;Signal;HPM_P1;HPM_P2
2021/06/22 00:01:06;;;;;;;17.80;4.85;;;13.00;99.90;;;;;;5075734;28;20037;-80
2021/06/22 00:03:31;;;;;;;14.20;4.28;;;13.00;99.90;;;;;;5061969;28;20157;-82
2021/06/22 00:05:58;;;;;;;19.50;4.78;;;13.00;99.90;;;;;;5062568;28;20041;-80
2021/06/22 00:08:24;;;;;;;14.27;3.95;;;13.00;99.90;;;;;;5061525;28;20033;-81
2021/06/22 00:10:50;;;;;;;12.05;3.67;;;13.00;99.90;;;;;;5061202;28;20075;-79
2021/06/22 00:13:16;;;;;;;17.67;3.90;;;12.90;99.90;;;;;;5059239;28;20472;-81
2021/06/22 00:15:42;;;;;;;8.85;2.92;;;13.00;99.90;;;;;;5063775;28;20041;-79
2021/06/22 00:18:08;;;;;;;18.83;3.42;;;13.00;99.90;;;;;;5041727;28;20036;-81
2021/06/22 00:20:34;;;;;;;11.88;3.42;;;13.00;99.90;;;;;;5063318;28;20079;-81
2021/06/22 00:23:00;;;;;;;17.52;4.30;;;13.00;99.90;;;;;;5062998;28;20128;-81
2021/06/22 00:25:26;;;;;;;15.13;3.92;;;13.00;99.90;;;;;;5059390;28;20058;-79
2021/06/22 00:27:52;;;;;;;16.98;3.83;;;13.00;99.90;;;;;;5059755;28;20039;-78
2021/06/22 00:30:20;;;;;;;19.25;5.10;;;13.00;99.90;;;;;;5063637;28;20484;-79
2021/06/22 00:32:46;;;;;;;22.60;4.70;;;13.00;99.90;;;;;;5061628;28;20035;-79
2021/06/22 00:35:13;;;;;;;18.80;5.15;;;12.90;99.90;;;;;;5067589;28;20111;-79
2021/06/22 00:37:41;;;;;;;13.50;6.13;;;12.90;99.90;;;;;;5076165;28;20465;-80
2021/06/22 00:40:08;;;;;;;17.23;7.38;;;12.90;99.90;;;;;;5061215;28;20131;-78
2021/06/22 00:42:34;;;;;;;20.98;8.00;;;12.90;99.90;;;;;;5063757;28;20044;-79
2021/06/22 00:45:01;;;;;;;21.52;8.98;;;12.80;99.90;;;;;;5063737;28;20037;-80
2021/06/22 00:47:28;;;;;;;21.02;9.27;;;12.80;99.90;;;;;;5057430;28;20543;-78
2021/06/22 00:49:55;;;;;;;23.63;10.25;;;12.70;99.90;;;;;;5063293;28;20032;-81
2021/06/22 00:52:26;;;;;;;25.67;10.70;;;12.60;99.90;;;;;;5062794;28;20063;-79
2021/06/22 00:54:53;;;;;;;23.45;10.93;;;12.60;99.90;;;;;;5060979;28;20041;-78
2021/06/22 00:57:19;;;;;;;24.38;11.05;;;12.60;99.90;;;;;;5054179;28;20064;-81
2021/06/22 00:59:46;;;;;;;22.25;11.68;;;12.60;99.90;;;;;;5059716;28;20079;-82
2021/06/22 01:02:12;;;;;;;24.80;12.45;;;12.60;99.90;;;;;;5068712;28;20036;-80
2021/06/22 01:04:38;;;;;;;27.17;12.60;;;12.60;99.90;;;;;;5060534;28;20047;-80
2021/06/22 01:07:04;;;;;;;28.80;13.02;;;12.50;99.90;;;;;;5056279;28;20033;-82
2021/06/22 01:09:30;;;;;;;35.22;12.45;;;12.50;99.90;;;;;;5043163;28;20127;-78
2021/06/22 01:11:58;;;;;;;23.45;12.18;;;12.40;99.90;;;;;;5057347;28;20163;-78
2021/06/22 01:14:25;;;;;;;23.83;12.45;;;12.40;99.90;;;;;;5057108;28;20384;-80
2021/06/22 01:16:51;;;;;;;28.58;12.55;;;12.40;99.90;;;;;;5063673;28;20500;-78
2021/06/22 01:19:17;;;;;;;23.98;11.82;;;12.30;99.90;;;;;;5058543;28;20526;-81
2021/06/22 01:21:43;;;;;;;22.05;12.70;;;12.30;99.90;;;;;;5062021;28;20060;-81
2021/06/22 01:24:15;;;;;;;30.58;12.63;;;12.20;99.90;;;;;;5057366;28;20044;-82
2021/06/22 01:26:55;;;;;;;24.58;12.75;;;12.10;99.90;;;;;;5061257;28;22109;-80
2021/06/22 01:29:21;;;;;;;25.90;12.57;;;12.20;99.90;;;;;;5057339;28;20044;-81
2021/06/22 01:31:48;;;;;;;25.88;13.02;;;12.10;99.90;;;;;;5056969;28;20067;-79
2021/06/22 01:34:14;;;;;;;21.58;12.60;;;12.10;99.90;;;;;;5064565;28;20102;-80
2021/06/22 01:36:41;;;;;;;25.17;12.70;;;12.00;99.90;;;;;;5060637;28;21545;-81
2021/06/22 01:39:12;;;;;;;27.33;12.80;;;12.00;99.90;;;;;;5067161;28;20068;-81
2021/06/22 01:41:38;;;;;;;24.92;12.93;;;12.00;99.90;;;;;;5056723;28;20043;-79
2021/06/22 01:44:05;;;;;;;23.25;12.88;;;11.90;99.90;;;;;;5061936;28;20039;-78
2021/06/22 01:46:30;;;;;;;28.83;13.25;;;12.00;99.90;;;;;;5065662;28;20472;-79
2021/06/22 01:48:56;;;;;;;26.75;13.23;;;12.00;99.90;;;;;;5064372;28;20050;-80
2021/06/22 01:51:22;;;;;;;27.73;12.93;;;11.80;99.90;;;;;;5067470;28;20047;-79
2021/06/22 01:53:55;;;;;;;25.95;12.98;;;11.80;99.90;;;;;;5064995;28;20033;-79
2021/06/22 01:56:22;;;;;;;25.00;12.95;;;11.80;99.90;;;;;;5066383;28;20044;-81
2021/06/22 01:58:49;;;;;;;23.10;12.93;;;11.80;99.90;;;;;;5066581;28;20036;-81
2021/06/22 02:01:19;;;;;;;30.17;13.75;;;11.70;99.90;;;;;;5065414;28;20052;-78
2021/06/22 02:03:45;;;;;;;29.77;12.70;;;11.70;99.90;;;;;;5056908;28;20041;-80
2021/06/22 02:06:12;;;;;;;24.73;13.07;;;11.60;99.90;;;;;;5068377;28;20120;-79
2021/06/22 02:08:38;;;;;;;26.05;12.95;;;11.70;99.90;;;;;;5060966;28;20045;-80
2021/06/22 02:11:04;;;;;;;20.83;12.73;;;11.70;99.90;;;;;;5057884;28;20068;-79
2021/06/22 02:13:30;;;;;;;22.58;13.23;;;11.70;99.90;;;;;;5068928;28;20037;-79
2021/06/22 02:15:56;;;;;;;20.27;13.15;;;11.70;99.90;;;;;;5068769;28;20480;-81
2021/06/22 02:18:25;;;;;;;28.92;13.70;;;11.70;99.90;;;;;;5054399;28;20087;-79
2021/06/22 02:20:51;;;;;;;24.63;11.77;;;11.60;99.90;;;;;;5064262;28;20029;-81
2021/06/22 02:23:17;;;;;;;23.63;12.10;;;11.60;99.90;;;;;;5064932;28;20060;-81
2021/06/22 02:25:43;;;;;;;31.65;13.40;;;11.50;99.90;;;;;;5061657;28;20424;-80
2021/06/22 02:28:22;;;;;;;25.42;12.88;;;11.50;99.90;;;;;;5065749;28;20036;-78
2021/06/22 02:30:50;;;;;;;25.33;13.75;;;11.40;99.90;;;;;;5067630;28;20041;-79
2021/06/22 02:33:16;;;;;;;27.48;14.30;;;11.40;99.90;;;;;;5061388;28;20045;-79
2021/06/22 02:35:42;;;;;;;23.67;14.13;;;11.30;99.90;;;;;;5076655;28;20043;-80
2021/06/22 02:38:09;;;;;;;33.53;15.07;;;11.40;99.90;;;;;;5065191;28;20036;-78
2021/06/22 02:40:35;;;;;;;32.35;15.40;;;11.30;99.90;;;;;;5055288;28;20037;-81
2021/06/22 02:43:01;;;;;;;30.00;14.30;;;11.30;99.90;;;;;;5065608;28;20503;-78
2021/06/22 02:45:28;;;;;;;30.35;13.48;;;11.40;99.90;;;;;;5055868;28;20125;-79
2021/06/22 02:47:54;;;;;;;29.75;14.82;;;11.30;99.90;;;;;;5065026;28;20033;-78
2021/06/22 02:50:20;;;;;;;33.25;15.00;;;11.30;99.90;;;;;;5062462;28;20078;-80
2021/06/22 02:52:46;;;;;;;30.17;15.45;;;11.30;99.90;;;;;;5063122;28;20059;-81
2021/06/22 02:55:19;;;;;;;25.52;13.73;;;11.30;99.90;;;;;;5059854;28;20037;-79
2021/06/22 02:57:46;;;;;;;26.25;14.50;;;11.30;99.90;;;;;;5061630;28;20126;-81
2021/06/22 03:00:13;;;;;;;28.92;13.70;;;11.30;99.90;;;;;;5058503;28;20105;-81
2021/06/22 03:02:39;;;;;;;27.85;14.48;;;11.30;99.90;;;;;;5060600;28;20041;-80
2021/06/22 03:05:05;;;;;;;29.00;14.77;;;11.30;99.90;;;;;;5064195;28;20478;-79
2021/06/22 03:07:31;;;;;;;27.63;14.07;;;11.30;99.90;;;;;;5064618;28;20116;-80
2021/06/22 03:09:56;;;;;;;24.70;13.65;;;11.30;99.90;;;;;;5061197;28;20123;-79
2021/06/22 03:12:22;;;;;;;25.80;13.20;;;11.30;99.90;;;;;;5063400;28;20111;-79
2021/06/22 03:14:48;;;;;;;29.40;13.77;;;11.20;99.90;;;;;;5062476;28;20068;-79
2021/06/22 03:17:14;;;;;;;30.08;14.10;;;11.20;99.90;;;;;;5059196;28;20063;-79
2021/06/22 03:19:39;;;;;;;20.67;12.70;;;11.20;99.90;;;;;;5064578;28;20082;-78
2021/06/22 03:22:05;;;;;;;30.63;14.05;;;11.10;99.90;;;;;;5056252;28;20139;-79
2021/06/22 03:24:31;;;;;;;22.88;14.45;;;11.10;99.90;;;;;;5063451;28;20103;-81
2021/06/22 03:26:57;;;;;;;32.33;15.25;;;11.10;99.90;;;;;;5058432;28;20044;-78
2021/06/22 03:29:24;;;;;;;27.45;14.35;;;11.00;99.90;;;;;;5065967;28;20041;-82
2021/06/22 03:31:51;;;;;;;36.42;15.23;;;11.00;99.90;;;;;;5062535;28;20040;-81
2021/06/22 03:34:18;;;;;;;23.05;13.38;;;11.00;99.90;;;;;;5064895;28;20037;-81
2021/06/22 03:36:44;;;;;;;26.80;14.98;;;11.10;99.90;;;;;;5055487;28;20052;-80
2021/06/22 03:39:10;;;;;;;24.08;14.15;;;11.10;99.90;;;;;;5057325;28;20063;-79
2021/06/22 03:41:37;;;;;;;30.33;14.73;;;11.00;99.90;;;;;;5063488;28;20061;-79
2021/06/22 03:44:03;;;;;;;33.65;14.60;;;11.00;99.90;;;;;;5060605;28;20067;-81
2021/06/22 03:46:30;;;;;;;24.40;14.10;;;11.00;99.90;;;;;;5055863;28;20032;-79
2021/06/22 03:48:56;;;;;;;31.63;15.82;;;11.00;99.90;;;;;;5063574;28;20041;-81
2021/06/22 03:51:22;;;;;;;31.48;15.23;;;11.10;99.90;;;;;;5062721;28;20059;-81
2021/06/22 03:53:48;;;;;;;24.45;14.93;;;11.10;99.90;;;;;;5060783;28;20132;-79
2021/06/22 03:56:15;;;;;;;28.65;15.68;;;11.20;99.90;;;;;;5066544;28;20029;-81
2021/06/22 03:58:42;;;;;;;28.88;15.60;;;11.20;99.90;;;;;;5063063;28;20112;-81
2021/06/22 04:01:08;;;;;;;30.42;15.30;;;11.20;99.90;;;;;;5064686;28;20487;-82
2021/06/22 04:03:34;;;;;;;26.05;15.13;;;11.20;99.90;;;;;;5063879;28;20068;-80
2021/06/22 04:06:14;;;;;;;27.65;15.40;;;11.20;99.90;;;;;;5062785;28;20037;-78
2021/06/22 04:08:41;;;;;;;34.40;14.57;;;11.20;99.90;;;;;;5056573;28;20045;-78
2021/06/22 04:11:07;;;;;;;26.40;15.35;;;11.10;99.90;;;;;;5050089;28;20045;-80
2021/06/22 04:13:33;;;;;;;20.70;14.40;;;11.20;99.90;;;;;;5054034;28;20560;-82
2021/06/22 04:15:59;;;;;;;24.70;14.85;;;11.10;99.90;;;;;;5036944;28;20191;-79
2021/06/22 04:18:25;;;;;;;31.08;14.40;;;11.20;99.90;;;;;;5055922;28;20032;-81
2021/06/22 04:20:50;;;;;;;28.73;14.57;;;11.20;99.90;;;;;;5057387;28;20112;-80
2021/06/22 04:23:16;;;;;;;23.67;14.98;;;11.20;99.90;;;;;;5060404;28;20032;-79
2021/06/22 04:25:43;;;;;;;23.23;14.30;;;11.50;99.90;;;;;;5063661;28;20392;-80
2021/06/22 04:28:09;;;;;;;22.65;13.43;;;11.60;99.90;;;;;;5041465;28;20072;-78
2021/06/22 04:30:37;;;;;;;26.38;14.10;;;11.70;99.90;;;;;;5074711;28;20072;-79
2021/06/22 04:33:05;;;;;;;26.35;14.25;;;11.70;99.90;;;;;;5060910;28;20040;-79
2021/06/22 04:35:32;;;;;;;21.13;13.52;;;11.70;99.90;;;;;;5063461;28;20044;-79
2021/06/22 04:38:05;;;;;;;25.92;14.65;;;11.60;99.90;;;;;;5057013;28;20076;-79
2021/06/22 04:40:32;;;;;;;27.73;15.57;;;11.60;99.90;;;;;;5064309;28;20051;-79
2021/06/22 04:43:00;;;;;;;33.97;15.75;;;11.60;99.90;;;;;;5058520;28;20040;-81
2021/06/22 04:45:26;;;;;;;22.77;15.10;;;11.70;99.90;;;;;;5058031;28;20056;-79
2021/06/22 04:47:51;;;;;;;32.22;16.73;;;11.90;99.90;;;;;;5062914;28;20036;-80
2021/06/22 04:50:17;;;;;;;23.55;15.48;;;12.50;99.90;;;;;;5063344;28;20494;-81
2021/06/22 04:52:43;;;;;;;34.10;16.70;;;12.90;99.90;;;;;;5066291;28;20104;-79
2021/06/22 04:55:13;;;;;;;29.92;15.35;;;13.40;99.90;;;;;;5055451;28;20033;-81
2021/06/22 04:57:44;;;;;;;29.90;15.45;;;13.60;99.90;;;;;;5044038;28;20051;-79
2021/06/22 05:00:11;;;;;;;31.08;16.48;;;13.50;99.90;;;;;;5059847;28;20037;-81
2021/06/22 05:02:38;;;;;;;32.53;15.15;;;13.30;99.90;;;;;;5042512;28;20044;-80
2021/06/22 05:05:05;;;;;;;26.20;14.73;;;13.20;99.90;;;;;;5060780;28;20041;-81
2021/06/22 05:07:31;;;;;;;31.15;15.75;;;13.10;99.90;;;;;;5053475;28;20037;-79
2021/06/22 05:09:58;;;;;;;33.80;15.90;;;12.90;99.90;;;;;;5059613;28;20140;-82
2021/06/22 05:12:25;;;;;;;26.63;14.95;;;12.90;99.90;;;;;;5061031;28;20039;-80
2021/06/22 05:14:50;;;;;;;23.95;14.43;;;12.90;99.90;;;;;;5065540;28;20054;-80
2021/06/22 05:17:16;;;;;;;28.98;14.35;;;12.90;99.90;;;;;;5065638;28;20511;-79
2021/06/22 05:19:42;;;;;;;28.35;15.25;;;12.90;99.90;;;;;;5068198;28;20040;-81
2021/06/22 05:22:08;;;;;;;30.13;13.80;;;12.90;99.90;;;;;;5061274;28;20047;-81
2021/06/22 05:24:34;;;;;;;29.42;13.90;;;12.90;99.90;;;;;;5061121;28;20040;-81
2021/06/22 05:27:00;;;;;;;27.85;13.73;;;12.90;99.90;;;;;;5056058;28;20044;-79
2021/06/22 05:29:25;;;;;;;29.27;13.32;;;13.00;99.90;;;;;;5066303;28;20041;-81
2021/06/22 05:31:51;;;;;;;23.95;9.63;;;13.00;99.90;;;;;;5065929;28;20499;-82
2021/06/22 05:34:17;;;;;;;18.30;8.90;;;13.10;99.90;;;;;;5063756;28;20105;-74
2021/06/22 05:36:44;;;;;;;16.67;8.45;;;13.20;99.90;;;;;;5056498;28;20099;-73
2021/06/22 05:39:10;;;;;;;22.52;8.35;;;13.30;99.90;;;;;;5059899;28;20065;-73
2021/06/22 05:41:36;;;;;;;16.35;8.57;;;13.30;99.90;;;;;;5066155;28;21898;-75
2021/06/22 05:44:02;;;;;;;21.63;8.00;;;13.30;99.90;;;;;;5066834;28;20048;-77
2021/06/22 05:46:27;;;;;;;16.33;7.95;;;13.30;99.90;;;;;;5065388;28;20093;-77
2021/06/22 05:48:53;;;;;;;19.77;8.30;;;13.40;99.90;;;;;;5064754;28;20040;-76
2021/06/22 05:51:19;;;;;;;20.75;9.02;;;13.30;99.90;;;;;;5064830;28;20440;-78
2021/06/22 05:53:45;;;;;;;20.05;9.65;;;13.30;99.90;;;;;;5065796;28;20033;-76
2021/06/22 05:56:11;;;;;;;21.23;9.35;;;13.30;99.90;;;;;;5067000;28;20042;-75
2021/06/22 05:58:37;;;;;;;16.88;9.00;;;13.40;99.90;;;;;;5067467;28;20040;-79
2021/06/22 06:01:02;;;;;;;20.13;8.63;;;13.50;99.90;;;;;;5067483;28;20429;-78
2021/06/22 06:03:28;;;;;;;22.30;8.13;;;13.60;99.90;;;;;;5063290;28;20036;-78
2021/06/22 06:05:54;;;;;;;16.42;6.88;;;13.70;99.90;;;;;;5064575;28;20109;-79
2021/06/22 06:08:19;;;;;;;18.45;7.88;;;13.70;99.90;;;;;;5063622;28;20527;-78
2021/06/22 06:10:45;;;;;;;18.40;6.93;;;13.80;99.90;;;;;;5056670;28;20060;-76
2021/06/22 06:13:11;;;;;;;17.52;6.93;;;13.90;99.90;;;;;;5064237;28;20167;-77
2021/06/22 06:15:37;;;;;;;16.48;5.90;;;14.00;99.90;;;;;;5060063;28;20134;-79
2021/06/22 06:18:04;;;;;;;18.13;6.88;;;14.10;99.90;;;;;;5070121;28;20121;-79
2021/06/22 06:20:30;;;;;;;17.90;5.68;;;14.20;99.90;;;;;;5065891;28;20779;-78
2021/06/22 06:22:57;;;;;;;15.00;5.88;;;14.30;99.90;;;;;;5057416;28;20071;-75
2021/06/22 06:25:24;;;;;;;12.63;5.07;;;14.40;99.90;;;;;;5057913;28;20408;-73
2021/06/22 06:28:01;;;;;;;18.42;5.85;;;14.40;99.90;;;;;;5065508;28;20045;-75
2021/06/22 06:30:31;;;;;;;18.45;5.35;;;14.50;99.90;;;;;;5065128;28;20496;-77
2021/06/22 06:32:57;;;;;;;19.00;4.47;;;14.50;99.90;;;;;;5064086;28;20087;-80
2021/06/22 06:35:24;;;;;;;19.17;4.60;;;14.50;99.90;;;;;;5057605;28;20049;-78
2021/06/22 06:37:51;;;;;;;13.75;3.70;;;14.60;99.90;;;;;;5061282;28;20045;-76
2021/06/22 06:40:17;;;;;;;19.38;4.90;;;14.80;99.90;;;;;;5054855;28;20469;-78
2021/06/22 06:42:44;;;;;;;19.48;4.68;;;14.90;99.90;;;;;;5043577;28;20041;-78
2021/06/22 06:45:15;;;;;;;18.25;4.70;;;15.10;99.90;;;;;;5066800;28;20037;-77
2021/06/22 06:47:41;;;;;;;16.48;4.78;;;15.40;99.90;;;;;;5079782;28;20116;-78
2021/06/22 06:50:07;;;;;;;12.80;3.88;;;15.60;99.90;;;;;;5064566;28;20425;-78
2021/06/22 06:52:34;;;;;;;19.90;4.82;;;15.60;99.90;;;;;;5063512;28;20044;-77
2021/06/22 06:55:00;;;;;;;14.65;3.95;;;15.50;99.90;;;;;;5062443;28;20047;-78
2021/06/22 06:57:27;;;;;;;13.57;4.30;;;15.50;99.90;;;;;;5058589;28;20052;-78
2021/06/22 06:59:53;;;;;;;18.85;4.30;;;15.60;99.90;;;;;;5060419;28;20052;-77
2021/06/22 07:02:18;;;;;;;12.88;3.90;;;15.50;99.90;;;;;;5061468;28;20049;-79
2021/06/22 07:04:44;;;;;;;13.63;3.67;;;15.60;99.90;;;;;;5061760;28;20048;-78
2021/06/22 07:07:10;;;;;;;15.05;3.50;;;15.70;99.90;;;;;;5063035;28;20029;-77
2021/06/22 07:09:36;;;;;;;13.32;3.85;;;15.80;99.90;;;;;;5058791;28;20064;-79
2021/06/22 07:12:03;;;;;;;16.02;3.60;;;15.60;99.90;;;;;;5065530;28;20048;-77
2021/06/22 07:14:36;;;;;;;13.73;3.10;;;15.60;99.90;;;;;;5059359;28;20036;-80
2021/06/22 07:17:02;;;;;;;17.48;3.85;;;15.70;99.90;;;;;;5059606;28;20520;-77
2021/06/22 07:19:29;;;;;;;12.05;3.70;;;15.80;99.90;;;;;;5052389;28;20124;-78
2021/06/22 07:21:55;;;;;;;13.88;3.60;;;15.80;99.90;;;;;;5059979;28;20459;-77
2021/06/22 07:24:22;;;;;;;12.25;3.67;;;15.60;99.90;;;;;;5058956;28;20068;-78
2021/06/22 07:26:47;;;;;;;10.75;3.60;;;15.30;99.90;;;;;;5063539;28;20052;-77
2021/06/22 07:29:14;;;;;;;15.27;3.95;;;15.20;99.90;;;;;;5055407;28;20437;-77
2021/06/22 07:31:40;;;;;;;13.48;3.00;;;15.30;99.90;;;;;;5061969;28;20135;-78
2021/06/22 07:34:07;;;;;;;11.93;3.75;;;15.30;99.90;;;;;;5057558;28;20515;-79
2021/06/22 07:36:34;;;;;;;12.13;3.47;;;15.40;99.90;;;;;;5055354;28;20040;-79
2021/06/22 07:39:00;;;;;;;14.48;3.72;;;15.50;99.90;;;;;;5066867;28;20101;-78
2021/06/22 07:41:26;;;;;;;9.48;3.03;;;15.50;99.90;;;;;;5064913;28;20053;-78
2021/06/22 07:43:52;;;;;;;14.98;3.90;;;15.40;99.90;;;;;;5069747;28;20042;-80
2021/06/22 07:46:18;;;;;;;9.75;3.13;;;15.50;99.90;;;;;;5066052;28;20033;-76
2021/06/22 07:48:44;;;;;;;15.82;3.05;;;15.60;99.90;;;;;;5073870;28;20462;-76
2021/06/22 07:51:10;;;;;;;16.45;4.03;;;15.80;99.90;;;;;;5077732;28;20056;-77
2021/06/22 07:53:36;;;;;;;11.75;2.95;;;15.60;99.90;;;;;;5078291;28;20024;-79
2021/06/22 07:56:02;;;;;;;9.60;2.97;;;15.60;99.90;;;;;;5085472;28;20048;-79
2021/06/22 07:58:28;;;;;;;10.90;2.63;;;15.70;99.90;;;;;;5078237;28;20090;-78
2021/06/22 08:00:54;;;;;;;11.40;3.22;;;15.80;99.90;;;;;;5064956;28;20048;-79
2021/06/22 08:03:21;;;;;;;7.88;2.35;;;16.10;99.90;;;;;;5064265;28;20082;-79
2021/06/22 08:05:49;;;;;;;9.32;2.90;;;16.30;99.90;;;;;;5063739;28;20111;-79
2021/06/22 08:08:17;;;;;;;12.88;3.30;;;16.30;99.90;;;;;;5061878;28;20411;-78
2021/06/22 08:10:45;;;;;;;9.40;3.78;;;16.30;99.90;;;;;;5062245;28;20361;-77
2021/06/22 08:13:12;;;;;;;13.98;3.20;;;16.50;99.90;;;;;;5069199;28;20661;-79
2021/06/22 08:15:38;;;;;;;9.15;2.70;;;16.60;99.90;;;;;;5059135;28;20049;-78
2021/06/22 08:18:05;;;;;;;7.50;2.40;;;16.40;99.90;;;;;;5052245;28;20044;-78
2021/06/22 08:20:31;;;;;;;13.38;2.70;;;16.40;99.90;;;;;;5065349;28;20024;-77
2021/06/22 08:22:58;;;;;;;10.65;3.00;;;16.40;99.90;;;;;;5062034;28;20808;-78
2021/06/22 08:25:26;;;;;;;8.18;2.83;;;16.40;99.90;;;;;;5068336;28;20050;-78
2021/06/22 08:27:53;;;;;;;8.15;2.70;;;16.30;99.90;;;;;;5062980;28;20527;-80
2021/06/22 08:30:21;;;;;;;17.58;3.65;;;16.30;99.90;;;;;;5060157;28;20499;-79
2021/06/22 08:32:47;;;;;;;12.45;3.42;;;16.20;99.90;;;;;;5065704;28;20048;-83
2021/06/22 08:35:14;;;;;;;13.98;3.13;;;16.20;99.90;;;;;;5065520;28;20040;-80
2021/06/22 08:37:40;;;;;;;13.15;3.38;;;16.20;99.90;;;;;;5059564;28;20036;-78
2021/06/22 08:40:08;;;;;;;11.50;3.58;;;16.20;99.90;;;;;;5058354;28;20077;-79
2021/06/22 08:42:36;;;;;;;11.60;3.13;;;16.30;99.90;;;;;;5064219;28;20062;-80
2021/06/22 08:45:05;;;;;;;10.80;3.20;;;16.40;99.90;;;;;;5060108;28;20400;-82
2021/06/22 08:47:30;;;;;;;17.00;3.38;;;16.40;99.90;;;;;;5061346;28;21915;-81
2021/06/22 08:49:57;;;;;;;18.13;3.17;;;16.60;99.90;;;;;;5061884;28;20043;-81
2021/06/22 08:52:25;;;;;;;9.90;2.60;;;16.80;99.90;;;;;;5051733;28;20511;-79
2021/06/22 08:54:53;;;;;;;10.15;3.17;;;16.60;99.90;;;;;;5059350;28;20115;-81
2021/06/22 08:57:23;;;;;;;10.70;2.83;;;16.50;99.90;;;;;;5054120;28;20082;-82
2021/06/22 08:59:50;;;;;;;14.88;2.85;;;16.40;99.90;;;;;;5062737;28;20139;-81
2021/06/22 09:02:17;;;;;;;10.85;2.70;;;16.50;99.90;;;;;;5057727;28;20387;-83
2021/06/22 09:04:42;;;;;;;15.18;3.65;;;16.30;99.90;;;;;;5058944;28;20037;-82
2021/06/22 09:07:10;;;;;;;14.27;3.30;;;16.30;99.90;;;;;;5056864;28;20069;-81
2021/06/22 09:09:37;;;;;;;10.82;3.50;;;16.30;99.90;;;;;;5058085;28;20067;-81
2021/06/22 09:12:06;;;;;;;16.50;3.47;;;16.30;99.90;;;;;;5064252;28;20109;-83
2021/06/22 09:14:37;;;;;;;12.43;3.88;;;16.30;99.90;;;;;;5061716;28;20110;-80
2021/06/22 09:17:04;;;;;;;14.13;3.78;;;16.40;99.90;;;;;;5060715;28;20045;-79
2021/06/22 09:19:31;;;;;;;8.05;3.13;;;16.40;99.90;;;;;;5063753;28;20035;-81
2021/06/22 09:22:12;;;;;;;11.60;3.10;;;16.50;99.90;;;;;;5065879;28;20040;-80
2021/06/22 09:24:38;;;;;;;12.23;3.00;;;16.50;99.90;;;;;;5057836;28;20088;-83
2021/06/22 09:27:04;;;;;;;13.98;3.22;;;16.50;99.90;;;;;;5039933;28;20037;-81
2021/06/22 09:29:42;;;;;;;19.00;3.83;;;16.50;99.90;;;;;;5057475;28;20039;-82
2021/06/22 09:32:08;;;;;;;18.15;4.00;;;16.60;99.90;;;;;;5059693;28;20037;-82
2021/06/22 09:34:34;;;;;;;12.63;3.42;;;16.50;99.90;;;;;;5065846;28;20083;-84
2021/06/22 09:37:04;;;;;;;10.98;3.08;;;16.60;99.90;;;;;;5058515;28;20040;-81
2021/06/22 09:39:30;;;;;;;18.40;3.75;;;16.50;99.90;;;;;;5060061;28;20055;-78
2021/06/22 09:41:58;;;;;;;15.98;3.72;;;16.40;99.90;;;;;;5063161;28;20397;-80
2021/06/22 09:44:29;;;;;;;10.25;3.22;;;16.60;99.90;;;;;;5061774;28;20040;-81
2021/06/22 09:47:01;;;;;;;15.77;3.63;;;16.70;99.90;;;;;;5066843;28;20047;-78
2021/06/22 09:49:31;;;;;;;13.65;3.47;;;16.70;99.90;;;;;;5057978;28;20045;-81
2021/06/22 09:52:25;;;;;;;19.75;4.00;;;17.00;99.90;;;;;;5062860;28;20055;-82
2021/06/22 09:54:52;;;;;;;8.47;2.87;;;17.10;99.90;;;;;;5057605;28;20115;-83
2021/06/22 09:57:19;;;;;;;17.15;3.70;;;17.50;99.90;;;;;;5062220;28;20049;-84
2021/06/22 09:59:49;;;;;;;16.90;3.75;;;17.40;99.90;;;;;;5070451;28;20028;-83
2021/06/22 10:02:16;;;;;;;13.45;3.47;;;16.90;99.90;;;;;;5069258;28;20112;-81
2021/06/22 10:04:45;;;;;;;14.05;3.20;;;16.60;99.90;;;;;;5060709;28;20045;-83
2021/06/22 10:07:12;;;;;;;9.98;3.13;;;16.70;99.90;;;;;;5061393;28;20102;-85
2021/06/22 10:09:39;;;;;;;11.45;3.22;;;16.60;99.90;;;;;;5059802;28;20145;-82
2021/06/22 10:12:05;;;;;;;15.85;3.63;;;16.60;99.90;;;;;;5071551;28;20037;-83
2021/06/22 10:14:36;;;;;;;13.18;3.40;;;16.60;99.90;;;;;;5053911;28;20045;-83
2021/06/22 10:17:07;;;;;;;12.20;3.60;;;16.70;99.90;;;;;;5055514;28;20037;-85
2021/06/22 10:19:33;;;;;;;10.57;4.10;;;16.60;99.90;;;;;;5058935;28;20060;-84
2021/06/22 10:22:01;;;;;;;12.18;3.50;;;16.60;99.90;;;;;;5069575;28;20131;-85
2021/06/22 10:24:28;;;;;;;15.45;3.90;;;16.60;99.90;;;;;;5053155;28;20399;-83
2021/06/22 10:26:56;;;;;;;13.10;3.75;;;16.90;99.90;;;;;;5056008;28;20029;-84
2021/06/22 10:29:23;;;;;;;14.95;4.15;;;17.10;99.90;;;;;;5066333;28;20575;-84
2021/06/22 10:31:52;;;;;;;12.68;4.45;;;17.00;99.90;;;;;;5054935;28;20116;-84
2021/06/22 10:34:18;;;;;;;10.85;3.75;;;17.00;99.90;;;;;;5064764;28;20480;-85
2021/06/22 10:37:08;;;;;;;15.90;4.18;;;17.00;99.90;;;;;;5059857;28;20029;-84
2021/06/22 10:39:58;;;;;;;14.45;4.30;;;17.20;99.90;;;;;;5059893;28;20067;-85
2021/06/22 10:42:37;;;;;;;13.75;4.32;;;17.00;99.90;;;;;;5067524;28;20060;-85
2021/06/22 10:45:04;;;;;;;10.57;4.68;;;17.10;99.90;;;;;;5043113;28;20083;-85
2021/06/22 10:47:35;;;;;;;17.73;4.00;;;17.20;99.90;;;;;;5071395;28;20555;-85
2021/06/22 10:50:22;;;;;;;13.73;4.10;;;17.30;99.90;;;;;;5053573;28;20044;-82
2021/06/22 10:53:06;;;;;;;14.70;4.82;;;17.30;99.90;;;;;;5050148;28;20122;-85
2021/06/22 10:55:33;;;;;;;15.57;4.68;;;17.60;99.90;;;;;;5063436;28;20103;-84
2021/06/22 10:58:08;;;;;;;11.73;4.07;;;17.80;99.90;;;;;;5046508;28;20163;-84
2021/06/22 11:00:37;;;;;;;12.15;4.70;;;17.50;99.90;;;;;;5048838;28;20542;-82
2021/06/22 11:03:09;;;;;;;11.80;4.35;;;17.50;99.90;;;;;;5043908;28;20057;-83
2021/06/22 11:05:37;;;;;;;18.75;5.32;;;17.60;99.90;;;;;;5051242;28;20520;-85
2021/06/22 11:08:08;;;;;;;12.75;4.60;;;17.70;99.90;;;;;;5049282;28;20067;-85
2021/06/22 11:10:39;;;;;;;14.38;4.65;;;17.60;99.90;;;;;;5070832;28;20460;-83
2021/06/22 11:13:05;;;;;;;9.27;4.10;;;17.70;99.90;;;;;;5050819;28;20045;-86
2021/06/22 11:15:51;;;;;;;8.38;3.70;;;17.70;99.90;;;;;;5045635;28;20032;-86
2021/06/22 11:18:18;;;;;;;12.80;4.82;;;17.60;99.90;;;;;;5045289;28;20064;-86
2021/06/22 11:21:05;;;;;;;12.15;4.22;;;17.80;99.90;;;;;;5069976;28;20033;-85
2021/06/22 11:23:50;;;;;;;9.40;3.92;;;17.90;99.90;;;;;;5061665;28;20140;-85
2021/06/22 11:26:16;;;;;;;10.98;3.95;;;17.80;99.90;;;;;;5063454;28;20410;-83
2021/06/22 11:29:00;;;;;;;12.10;4.55;;;17.60;99.90;;;;;;5057026;28;20056;-84
2021/06/22 11:31:56;;;;;;;9.90;4.38;;;17.80;99.90;;;;;;5038072;28;20405;-86
2021/06/22 11:34:32;;;;;;;8.45;3.75;;;17.90;99.90;;;;;;5069698;28;20106;-85
2021/06/22 11:37:05;;;;;;;9.02;4.35;;;17.70;99.90;;;;;;5070092;28;20060;-85
2021/06/22 11:39:38;;;;;;;12.25;4.75;;;18.00;99.90;;;;;;5044989;28;20057;-83
2021/06/22 11:42:10;;;;;;;10.25;4.05;;;18.10;99.90;;;;;;5050274;28;20056;-83
2021/06/22 11:44:45;;;;;;;12.40;4.70;;;17.90;99.90;;;;;;5052775;28;20052;-86
2021/06/22 11:47:31;;;;;;;8.23;3.67;;;18.20;99.90;;;;;;5040718;28;20116;-84
2021/06/22 11:50:17;;;;;;;12.07;4.63;;;18.00;99.90;;;;;;5069567;28;20098;-85
2021/06/22 11:53:05;;;;;;;11.98;4.63;;;17.80;99.90;;;;;;5069685;28;20114;-83
2021/06/22 11:55:40;;;;;;;14.30;4.72;;;17.60;99.90;;;;;;5044129;28;20041;-83
2021/06/22 11:58:06;;;;;;;8.85;4.60;;;17.90;99.90;;;;;;5052462;28;20059;-85
2021/06/22 12:00:33;;;;;;;13.13;4.03;;;18.00;99.90;;;;;;5050536;28;20049;-82
2021/06/22 12:03:02;;;;;;;10.20;4.47;;;18.30;99.90;;;;;;5052711;28;20053;-83
2021/06/22 12:05:30;;;;;;;10.13;4.07;;;17.80;99.90;;;;;;5052248;28;20057;-85
2021/06/22 12:08:04;;;;;;;12.90;4.38;;;18.00;99.90;;;;;;5050547;28;20048;-86
2021/06/22 12:10:43;;;;;;;11.57;4.95;;;17.90;99.90;;;;;;5050355;28;20350;-86
2021/06/22 12:13:10;;;;;;;9.85;4.63;;;18.00;99.90;;;;;;5062443;28;20072;-85
2021/06/22 12:15:39;;;;;;;11.93;4.22;;;18.10;99.90;;;;;;5063716;28;20033;-85
2021/06/22 12:18:05;;;;;;;10.27;4.10;;;18.30;99.90;;;;;;5076081;28;20048;-85
2021/06/22 12:20:34;;;;;;;12.63;4.30;;;18.30;99.90;;;;;;5064682;28;20848;-83
2021/06/22 12:23:11;;;;;;;19.85;4.47;;;18.10;99.90;;;;;;5061483;28;20047;-84
2021/06/22 12:25:46;;;;;;;12.30;4.20;;;18.00;99.90;;;;;;5064961;28;20031;-86
2021/06/22 12:28:13;;;;;;;10.48;3.55;;;18.00;99.90;;;;;;5064562;28;20145;-84
2021/06/22 12:30:46;;;;;;;13.50;4.80;;;18.00;99.90;;;;;;5054724;28;20076;-84
2021/06/22 12:33:12;;;;;;;8.52;4.22;;;17.70;99.90;;;;;;5062222;28;20036;-83
2021/06/22 12:35:40;;;;;;;13.73;4.20;;;18.00;99.90;;;;;;5071356;28;20051;-86
2021/06/22 12:38:08;;;;;;;12.05;4.07;;;17.90;99.90;;;;;;5069481;28;20052;-85